Portada
METAR-TAF:

METAR-TAF

Aeroports :

Qurayyat, Aràbia Saudita

latitud: 31-24N, longitud: 037-16E, altitud: 509 m

Observació

L'informe es va fer fa 31 minuts, a les 10:00 UTC
Vent 12 kt del Nord
Temperatura 25°C
Humitat 24%
Pressió 1012 hPa
Visibilitat 10 km o més
Núvols disperses a una alçada de 3000 ft

METAR: OEGT 151000Z 35012KT 9999 SCT030 25/03 Q1012 NOSIG

Hora: 13:31 (10:31 UTC)

Pronòstic

L'informe es va fer fa 11 hores i 31 minuts, a les 23:00 UTC
Pronòstic vàlid del 15 a les 00 UTC al 16 a les 06 UTC
Vent 12 kt del Nord/Nord-Oest
Visibilitat: 7000 m
Temporalment
l' 15 a les 00 UTC al 15 a les 12 UTC
Vent 20 kt amb direcció variable
Visibilitat: 5000 m
Escasses núvols a una alçada de 3500 ft, Cumulonimbus.
Cel ennuvolat a una alçada de 4000 ft
torb alta de pols, tempesta
Evolucionant progressivament
l' 15 a les 12 UTC al 15 a les 14 UTC
Vent 10 kt del Nord

TAF: OEGT 142300Z 1500/1606 34012KT 7000 NSC TEMPO 1500/1512 VRB20KT 5000 BLDU TS FEW035CB BKN040 BECMG 1512/1514 36010KT

Observacions i pronòstics meteorològics de més de 4000 aeroports (METAR i TAF).

Les estacions disponibles són els punts grocs i vermells al mapa.

Posi el ratolí al punt desitjat per veure el nom de l'estació.

Feu clic per veure les observacions i els pronòstics meteorològics.

Per canviar el mapa: feu clic els botons verds amb una creu de color negre per apropar; al botó verd amb un guió per allunyar la imatge; o en les fletxes verdes per a mapes adjacents.


METAR-TAF: